Anderson Regional Airport Anderson US
ICAO: KAND
IATA: AND
Category: Medium
Scheduled Services: No

Elevation: 782 ft
TransAlt. 18000 ft.

Airport Communications:
GREER APP/DEP:118.8
ASOS:120.675
CTAF:123.6
RDO:122.2
UNICOM:122.95

KAND Zoom In..

Runways:

(A) RW 05 length 6002 ft width 149 ft
ILS 111.90 / hdg 51

(B) RW 17 length 4996 ft width 149 ft
---- / hdg 171

(C) RW 23 length 6002 ft width 149 ft
---- / hdg 231

(D) RW 35 length 4996 ft width 149 ft
---- / hdg 351

Location; KAND
Day. 20 / Time. 02.56 Zulu
* Altimeter: 30.03
* Temperature: 23° c. 73.4°f.
* Wind from: 030° Speed 03 kn.
Dewpoint: 21° c.
Visibility: 10 Statute Miles.
Clouds: Clear (automated report).

KAND 200256Z AUTO 03003KT 10SM CLR 23/21 A3003 RMK AO2 SLP159 T02330206 50006


Wind From 030°
Speed 03 kn.

 
 
jpsmedia.com for Web Design worldairports.se 2018   terms of use